sensor_id;sensor_type;location;lat;lon;timestamp;pressure;altitude;pressure_sealevel;temperature;humidity
31403;BME280;18039;52.188;21.024;2023-04-06T00:00:36;78105.44;;;-141.45;57.69
31403;BME280;18039;52.188;21.024;2023-04-06T00:03:16;78109.50;;;-141.45;57.95
31403;BME280;18039;52.188;21.024;2023-04-06T00:05:44;78113.56;;;-141.45;57.80
31403;BME280;18039;52.188;21.024;2023-04-06T00:08:11;78105.44;;;-141.45;57.92
31403;BME280;18039;52.188;21.024;2023-04-06T00:10:38;78105.44;;;-141.45;58.01
31403;BME280;18039;52.188;21.024;2023-04-06T00:13:06;78105.44;;;-141.45;57.98
31403;BME280;18039;52.188;21.024;2023-04-06T00:15:34;78107.47;;;-141.45;58.18
31403;BME280;18039;52.188;21.024;2023-04-06T00:18:02;78101.38;;;-141.45;58.30
31403;BME280;18039;52.188;21.024;2023-04-06T00:20:29;78109.50;;;-141.45;58.55
31403;BME280;18039;52.188;21.024;2023-04-06T00:22:56;78109.50;;;-141.45;58.38
31403;BME280;18039;52.188;21.024;2023-04-06T00:25:25;78107.47;;;-141.45;58.26
31403;BME280;18039;52.188;21.024;2023-04-06T00:27:52;78101.38;;;-141.45;58.28
31403;BME280;18039;52.188;21.024;2023-04-06T00:30:19;78101.38;;;-141.45;58.35
31403;BME280;18039;52.188;21.024;2023-04-06T00:32:46;78101.38;;;-141.45;58.34
31403;BME280;18039;52.188;21.024;2023-04-06T00:35:14;78097.34;;;-141.45;58.23
31403;BME280;18039;52.188;21.024;2023-04-06T00:37:42;78093.28;;;-141.45;58.09
31403;BME280;18039;52.188;21.024;2023-04-06T00:40:09;78097.34;;;-141.45;57.86
31403;BME280;18039;52.188;21.024;2023-04-06T00:42:37;78089.22;;;-141.45;58.43
31403;BME280;18039;52.188;21.024;2023-04-06T00:45:04;78097.34;;;-141.45;58.59
31403;BME280;18039;52.188;21.024;2023-04-06T00:47:32;78103.41;;;-141.45;58.16
31403;BME280;18039;52.188;21.024;2023-04-06T00:50:00;78085.16;;;-141.45;58.34
31403;BME280;18039;52.188;21.024;2023-04-06T00:52:27;78093.28;;;-141.45;58.46
31403;BME280;18039;52.188;21.024;2023-04-06T00:54:55;78097.34;;;-141.45;58.31
31403;BME280;18039;52.188;21.024;2023-04-06T00:57:22;78087.19;;;-141.45;58.33
31403;BME280;18039;52.188;21.024;2023-04-06T00:59:54;78093.28;;;-141.45;58.20
31403;BME280;18039;52.188;21.024;2023-04-06T01:02:21;78089.22;;;-141.45;58.69
31403;BME280;18039;52.188;21.024;2023-04-06T01:04:52;78093.28;;;-141.45;58.75
31403;BME280;18039;52.188;21.024;2023-04-06T01:07:26;78097.34;;;-141.45;58.33
31403;BME280;18039;52.188;21.024;2023-04-06T01:10:05;78089.22;;;-141.45;58.29
31403;BME280;18039;52.188;21.024;2023-04-06T01:12:34;78081.09;;;-141.45;58.42
31403;BME280;18039;52.188;21.024;2023-04-06T01:15:05;78089.22;;;-141.45;58.62
31403;BME280;18039;52.188;21.024;2023-04-06T01:17:37;78095.31;;;-141.45;58.80
31403;BME280;18039;52.188;21.024;2023-04-06T01:20:11;78081.09;;;-141.45;58.70
31403;BME280;18039;52.188;21.024;2023-04-06T01:22:38;78083.13;;;-141.45;58.81
31403;BME280;18039;52.188;21.024;2023-04-06T01:25:06;78081.09;;;-141.45;59.04
31403;BME280;18039;52.188;21.024;2023-04-06T01:27:42;78077.06;;;-141.45;58.94
31403;BME280;18039;52.188;21.024;2023-04-06T01:30:45;78075.03;;;-141.45;58.96
31403;BME280;18039;52.188;21.024;2023-04-06T01:33:30;78077.06;;;-141.45;58.92
31403;BME280;18039;52.188;21.024;2023-04-06T01:36:02;78068.94;;;-141.45;59.01
31403;BME280;18039;52.188;21.024;2023-04-06T01:38:30;78070.97;;;-141.45;58.69
31403;BME280;18039;52.188;21.024;2023-04-06T01:40:57;78077.06;;;-141.45;58.91
31403;BME280;18039;52.188;21.024;2023-04-06T01:43:29;78073.00;;;-141.45;59.06
31403;BME280;18039;52.188;21.024;2023-04-06T01:46:02;78077.06;;;-141.45;58.91
31403;BME280;18039;52.188;21.024;2023-04-06T01:48:33;78064.88;;;-141.45;58.26
31403;BME280;18039;52.188;21.024;2023-04-06T01:51:07;78068.94;;;-141.45;58.20
31403;BME280;18039;52.188;21.024;2023-04-06T01:53:43;78064.88;;;-141.45;58.55
31403;BME280;18039;52.188;21.024;2023-04-06T01:56:11;78064.88;;;-141.45;58.47
31403;BME280;18039;52.188;21.024;2023-04-06T01:58:45;78064.88;;;-141.45;58.16
31403;BME280;18039;52.188;21.024;2023-04-06T02:01:15;78048.66;;;-141.45;58.15
31403;BME280;18039;52.188;21.024;2023-04-06T02:03:50;78056.78;;;-141.45;58.63
31403;BME280;18039;52.188;21.024;2023-04-06T02:06:18;78062.84;;;-141.45;58.18
31403;BME280;18039;52.188;21.024;2023-04-06T02:08:45;78054.75;;;-141.45;58.42
31403;BME280;18039;52.188;21.024;2023-04-06T02:11:13;78056.78;;;-141.45;58.69
31403;BME280;18039;52.188;21.024;2023-04-06T02:13:45;78056.78;;;-141.45;58.55
31403;BME280;18039;52.188;21.024;2023-04-06T02:16:12;78052.72;;;-141.45;58.63
31403;BME280;18039;52.188;21.024;2023-04-06T02:18:39;78052.72;;;-141.45;58.91
31403;BME280;18039;52.188;21.024;2023-04-06T02:21:07;78048.66;;;-141.45;58.75
31403;BME280;18039;52.188;21.024;2023-04-06T02:23:34;78046.63;;;-141.45;58.66
31403;BME280;18039;52.188;21.024;2023-04-06T02:26:02;78032.44;;;-141.45;58.71
31403;BME280;18039;52.188;21.024;2023-04-06T02:28:29;78040.56;;;-141.45;59.20
31403;BME280;18039;52.188;21.024;2023-04-06T02:30:56;78036.50;;;-141.45;59.12
31403;BME280;18039;52.188;21.024;2023-04-06T02:33:26;78032.44;;;-141.45;59.08
31403;BME280;18039;52.188;21.024;2023-04-06T02:35:53;78028.38;;;-141.45;59.23
31403;BME280;18039;52.188;21.024;2023-04-06T02:38:20;78032.44;;;-141.45;59.40
31403;BME280;18039;52.188;21.024;2023-04-06T02:40:48;78036.50;;;-141.45;59.55
31403;BME280;18039;52.188;21.024;2023-04-06T02:43:19;78032.44;;;-141.45;59.43
31403;BME280;18039;52.188;21.024;2023-04-06T02:45:49;78036.50;;;-141.45;59.77
31403;BME280;18039;52.188;21.024;2023-04-06T02:48:17;78040.56;;;-141.45;59.65
31403;BME280;18039;52.188;21.024;2023-04-06T02:50:44;78036.50;;;-141.45;60.06
31403;BME280;18039;52.188;21.024;2023-04-06T02:53:12;78038.53;;;-141.45;60.17
31403;BME280;18039;52.188;21.024;2023-04-06T02:55:39;78038.53;;;-141.45;60.04
31403;BME280;18039;52.188;21.024;2023-04-06T02:58:07;78048.66;;;-141.45;60.27
31403;BME280;18039;52.188;21.024;2023-04-06T03:00:44;78052.72;;;-141.45;60.42
31403;BME280;18039;52.188;21.024;2023-04-06T03:03:11;78060.81;;;-141.45;60.72
31403;BME280;18039;52.188;21.024;2023-04-06T03:05:40;78060.81;;;-141.45;61.04
31403;BME280;18039;52.188;21.024;2023-04-06T03:08:09;78064.88;;;-141.45;61.49
31403;BME280;18039;52.188;21.024;2023-04-06T03:10:44;78064.88;;;-141.45;61.49
31403;BME280;18039;52.188;21.024;2023-04-06T03:13:12;78060.81;;;-141.45;61.69
31403;BME280;18039;52.188;21.024;2023-04-06T03:15:49;78068.94;;;-141.45;62.11
31403;BME280;18039;52.188;21.024;2023-04-06T03:18:23;78073.00;;;-141.45;62.52
31403;BME280;18039;52.188;21.024;2023-04-06T03:20:52;78068.94;;;-141.45;62.37
31403;BME280;18039;52.188;21.024;2023-04-06T03:23:24;78070.97;;;-141.45;62.44
31403;BME280;18039;52.188;21.024;2023-04-06T03:25:57;78077.06;;;-141.45;62.76
31403;BME280;18039;52.188;21.024;2023-04-06T03:28:24;78079.09;;;-141.45;62.92
31403;BME280;18039;52.188;21.024;2023-04-06T03:30:58;78079.09;;;-141.45;63.32
31403;BME280;18039;52.188;21.024;2023-04-06T03:34:01;78085.16;;;-141.45;63.39
31403;BME280;18039;52.188;21.024;2023-04-06T03:36:34;78081.09;;;-141.45;63.43
31403;BME280;18039;52.188;21.024;2023-04-06T03:39:03;78085.16;;;-141.45;63.66
31403;BME280;18039;52.188;21.024;2023-04-06T03:41:34;78089.22;;;-141.45;64.13
31403;BME280;18039;52.188;21.024;2023-04-06T03:44:21;78097.34;;;-141.45;64.52
31403;BME280;18039;52.188;21.024;2023-04-06T03:46:49;78095.31;;;-141.45;64.97
31403;BME280;18039;52.188;21.024;2023-04-06T03:49:16;78105.44;;;-141.45;65.00
31403;BME280;18039;52.188;21.024;2023-04-06T03:51:47;78101.38;;;-141.45;64.59
31403;BME280;18039;52.188;21.024;2023-04-06T03:54:14;78105.44;;;-141.45;64.78
31403;BME280;18039;52.188;21.024;2023-04-06T03:56:42;78113.56;;;-141.45;64.95
31403;BME280;18039;52.188;21.024;2023-04-06T03:59:09;78109.50;;;-141.45;65.15
31403;BME280;18039;52.188;21.024;2023-04-06T04:01:37;78105.44;;;-141.45;65.03
31403;BME280;18039;52.188;21.024;2023-04-06T04:04:06;78109.50;;;-141.45;64.86
31403;BME280;18039;52.188;21.024;2023-04-06T04:06:33;78111.53;;;-141.45;65.07
31403;BME280;18039;52.188;21.024;2023-04-06T04:09:00;78117.63;;;-141.45;64.88
31403;BME280;18039;52.188;21.024;2023-04-06T04:11:28;78105.44;;;-141.45;64.79
31403;BME280;18039;52.188;21.024;2023-04-06T04:13:57;78113.56;;;-141.45;64.71
31403;BME280;18039;52.188;21.024;2023-04-06T04:16:24;78105.44;;;-141.45;64.43
31403;BME280;18039;52.188;21.024;2023-04-06T04:18:51;78097.34;;;-141.45;64.65
31403;BME280;18039;52.188;21.024;2023-04-06T04:21:19;78097.34;;;-141.45;64.37
31403;BME280;18039;52.188;21.024;2023-04-06T04:23:46;78093.28;;;-141.45;64.29
31403;BME280;18039;52.188;21.024;2023-04-06T04:26:13;78093.28;;;-141.45;64.78
31403;BME280;18039;52.188;21.024;2023-04-06T04:28:43;78099.34;;;-141.45;65.05
31403;BME280;18039;52.188;21.024;2023-04-06T04:31:10;78089.22;;;-141.45;64.94
31403;BME280;18039;52.188;21.024;2023-04-06T04:33:39;78097.34;;;-141.45;65.46
31403;BME280;18039;52.188;21.024;2023-04-06T04:36:11;78105.44;;;-141.45;65.42
31403;BME280;18039;52.188;21.024;2023-04-06T04:38:42;78097.34;;;-141.45;65.84
31403;BME280;18039;52.188;21.024;2023-04-06T04:41:10;78081.09;;;-141.45;65.29
31403;BME280;18039;52.188;21.024;2023-04-06T04:43:40;78077.06;;;-141.45;65.05
31403;BME280;18039;52.188;21.024;2023-04-06T04:46:08;78070.97;;;-141.45;65.17
31403;BME280;18039;52.188;21.024;2023-04-06T04:48:40;78066.91;;;-141.45;64.92
31403;BME280;18039;52.188;21.024;2023-04-06T04:51:08;78056.78;;;-141.45;64.73
31403;BME280;18039;52.188;21.024;2023-04-06T04:53:53;78050.69;;;-141.45;64.19
31403;BME280;18039;52.188;21.024;2023-04-06T04:56:25;78052.72;;;-141.45;64.46
31403;BME280;18039;52.188;21.024;2023-04-06T04:58:57;78044.59;;;-141.45;64.41
31403;BME280;18039;52.188;21.024;2023-04-06T05:01:27;78044.59;;;-141.45;64.46
31403;BME280;18039;52.188;21.024;2023-04-06T05:03:55;78030.41;;;-141.45;63.95
31403;BME280;18039;52.188;21.024;2023-04-06T05:06:22;78036.50;;;-141.45;64.16
31403;BME280;18039;52.188;21.024;2023-04-06T05:08:50;78040.56;;;-141.45;64.27
31403;BME280;18039;52.188;21.024;2023-04-06T05:11:17;78038.53;;;-141.45;64.37
31403;BME280;18039;52.188;21.024;2023-04-06T05:13:53;78036.50;;;-141.45;64.04
31403;BME280;18039;52.188;21.024;2023-04-06T05:16:23;78040.56;;;-141.45;64.43
31403;BME280;18039;52.188;21.024;2023-04-06T05:18:51;78044.59;;;-141.45;64.59
31403;BME280;18039;52.188;21.024;2023-04-06T05:21:20;78042.56;;;-141.45;64.59
31403;BME280;18039;52.188;21.024;2023-04-06T05:23:55;78040.56;;;-141.45;64.48
31403;BME280;18039;52.188;21.024;2023-04-06T05:26:23;78036.50;;;-141.45;65.00
31403;BME280;18039;52.188;21.024;2023-04-06T05:28:54;78038.53;;;-141.45;64.46
31403;BME280;18039;52.188;21.024;2023-04-06T05:31:22;78040.56;;;-141.45;64.86
31403;BME280;18039;52.188;21.024;2023-04-06T05:33:50;78040.56;;;-141.45;65.11
31403;BME280;18039;52.188;21.024;2023-04-06T05:36:28;78030.41;;;-141.45;65.39
31403;BME280;18039;52.188;21.024;2023-04-06T05:38:56;78008.09;;;-141.45;65.12
31403;BME280;18039;52.188;21.024;2023-04-06T05:41:34;78008.09;;;-141.45;65.18
31403;BME280;18039;52.188;21.024;2023-04-06T05:44:02;77995.94;;;-141.45;64.89
31403;BME280;18039;52.188;21.024;2023-04-06T05:46:30;77981.75;;;-141.45;64.37
31403;BME280;18039;52.188;21.024;2023-04-06T05:48:59;77959.44;;;-141.45;63.70
31403;BME280;18039;52.188;21.024;2023-04-06T05:51:30;77963.50;;;-141.45;63.96
31403;BME280;18039;52.188;21.024;2023-04-06T05:53:58;77959.44;;;-141.45;64.46
31403;BME280;18039;52.188;21.024;2023-04-06T05:56:27;77951.31;;;-141.45;63.92
31403;BME280;18039;52.188;21.024;2023-04-06T05:58:54;77967.53;;;-141.45;64.12
31403;BME280;18039;52.188;21.024;2023-04-06T06:01:26;77951.31;;;-141.45;64.36
31403;BME280;18039;52.188;21.024;2023-04-06T06:03:54;77939.16;;;-141.45;63.70
31403;BME280;18039;52.188;21.024;2023-04-06T06:06:27;77931.03;;;-141.45;63.23
31403;BME280;18039;52.188;21.024;2023-04-06T06:09:07;77929.00;;;-141.45;62.57
31403;BME280;18039;52.188;21.024;2023-04-06T06:11:40;77922.94;;;-141.45;62.96
31403;BME280;18039;52.188;21.024;2023-04-06T06:14:12;77918.88;;;-141.45;62.66
31403;BME280;18039;52.188;21.024;2023-04-06T06:16:40;77906.72;;;-141.45;62.94
31403;BME280;18039;52.188;21.024;2023-04-06T06:19:11;77910.75;;;-141.45;62.35
31403;BME280;18039;52.188;21.024;2023-04-06T06:21:39;77902.66;;;-141.45;62.46
31403;BME280;18039;52.188;21.024;2023-04-06T06:24:07;77914.81;;;-141.45;62.97
31403;BME280;18039;52.188;21.024;2023-04-06T06:26:36;77908.72;;;-141.45;62.12
31403;BME280;18039;52.188;21.024;2023-04-06T06:29:06;77904.69;;;-141.45;62.85
31403;BME280;18039;52.188;21.024;2023-04-06T06:31:37;77908.72;;;-141.45;63.32
31403;BME280;18039;52.188;21.024;2023-04-06T06:34:05;77882.38;;;-141.45;62.00
31403;BME280;18039;52.188;21.024;2023-04-06T06:36:35;77870.22;;;-141.45;61.35
31403;BME280;18039;52.188;21.024;2023-04-06T06:39:06;77870.22;;;-141.45;60.76
31403;BME280;18039;52.188;21.024;2023-04-06T06:41:34;77862.09;;;-141.45;61.35
31403;BME280;18039;52.188;21.024;2023-04-06T06:44:03;77860.06;;;-141.45;61.08
31403;BME280;18039;52.188;21.024;2023-04-06T06:46:31;77862.09;;;-141.45;60.95
31403;BME280;18039;52.188;21.024;2023-04-06T06:48:58;77849.94;;;-141.45;60.59
31403;BME280;18039;52.188;21.024;2023-04-06T06:51:26;77851.97;;;-141.45;60.64
31403;BME280;18039;52.188;21.024;2023-04-06T06:53:54;77849.94;;;-141.45;60.53
31403;BME280;18039;52.188;21.024;2023-04-06T06:56:22;77853.97;;;-141.45;60.99
31403;BME280;18039;52.188;21.024;2023-04-06T06:58:50;77851.97;;;-141.45;61.01
31403;BME280;18039;52.188;21.024;2023-04-06T07:01:19;77841.81;;;-141.45;61.26
31403;BME280;18039;52.188;21.024;2023-04-06T07:03:46;77839.78;;;-141.45;61.17
31403;BME280;18039;52.188;21.024;2023-04-06T07:06:14;77829.66;;;-141.45;61.25
31403;BME280;18039;52.188;21.024;2023-04-06T07:08:41;77813.44;;;-141.45;61.20
31403;BME280;18039;52.188;21.024;2023-04-06T07:11:09;77813.44;;;-141.45;61.41
31403;BME280;18039;52.188;21.024;2023-04-06T07:13:37;77815.44;;;-141.45;61.54
31403;BME280;18039;52.188;21.024;2023-04-06T07:16:05;77823.56;;;-141.45;61.78
31403;BME280;18039;52.188;21.024;2023-04-06T07:18:32;77809.38;;;-141.45;61.18
31403;BME280;18039;52.188;21.024;2023-04-06T07:21:02;77803.28;;;-141.45;60.99
31403;BME280;18039;52.188;21.024;2023-04-06T07:23:30;77793.16;;;-141.45;60.82
31403;BME280;18039;52.188;21.024;2023-04-06T07:25:57;77805.31;;;-141.45;61.01
31403;BME280;18039;52.188;21.024;2023-04-06T07:28:24;77797.19;;;-141.45;61.29
31403;BME280;18039;52.188;21.024;2023-04-06T07:30:53;77793.16;;;-141.45;61.66
31403;BME280;18039;52.188;21.024;2023-04-06T07:33:22;77780.97;;;-141.45;61.21
31403;BME280;18039;52.188;21.024;2023-04-06T07:35:50;77772.88;;;-141.45;60.54
31403;BME280;18039;52.188;21.024;2023-04-06T07:38:21;77795.19;;;-141.45;60.53
31403;BME280;18039;52.188;21.024;2023-04-06T07:40:50;77809.38;;;-141.45;61.24
31403;BME280;18039;52.188;21.024;2023-04-06T07:43:18;77809.38;;;-141.45;61.55
31403;BME280;18039;52.188;21.024;2023-04-06T07:45:45;77789.09;;;-141.45;61.38
31403;BME280;18039;52.188;21.024;2023-04-06T07:48:15;77809.38;;;-141.45;61.71
31403;BME280;18039;52.188;21.024;2023-04-06T07:50:45;77801.25;;;-141.45;62.12
31403;BME280;18039;52.188;21.024;2023-04-06T07:53:13;77801.25;;;-141.45;62.44
31403;BME280;18039;52.188;21.024;2023-04-06T07:55:42;77785.03;;;-141.45;63.39
31403;BME280;18039;52.188;21.024;2023-04-06T07:58:09;77805.31;;;-141.45;63.73
31403;BME280;18039;52.188;21.024;2023-04-06T08:00:37;77780.97;;;-141.45;63.73
31403;BME280;18039;52.188;21.024;2023-04-06T08:03:05;77776.94;;;-141.45;63.33
31403;BME280;18039;52.188;21.024;2023-04-06T08:05:32;77768.81;;;-141.45;63.49
31403;BME280;18039;52.188;21.024;2023-04-06T08:07:59;77762.72;;;-141.45;63.91
31403;BME280;18039;52.188;21.024;2023-04-06T08:10:27;77730.28;;;-141.45;63.89
31403;BME280;18039;52.188;21.024;2023-04-06T08:12:54;77720.16;;;-141.45;64.29
31403;BME280;18039;52.188;21.024;2023-04-06T08:15:22;77703.94;;;-141.45;64.42
31403;BME280;18039;52.188;21.024;2023-04-06T08:17:49;77699.88;;;-141.45;64.13
31403;BME280;18039;52.188;21.024;2023-04-06T08:20:16;77703.94;;;-141.45;63.87
31403;BME280;18039;52.188;21.024;2023-04-06T08:22:43;77736.38;;;-141.45;63.56
31403;BME280;18039;52.188;21.024;2023-04-06T08:25:11;77772.88;;;-141.45;64.63
31403;BME280;18039;52.188;21.024;2023-04-06T08:27:38;77748.53;;;-141.45;65.03
31403;BME280;18039;52.188;21.024;2023-04-06T08:30:06;77736.38;;;-141.45;64.86
31403;BME280;18039;52.188;21.024;2023-04-06T08:32:33;77736.38;;;-141.45;65.07
31403;BME280;18039;52.188;21.024;2023-04-06T08:35:01;77736.38;;;-141.45;64.46
31403;BME280;18039;52.188;21.024;2023-04-06T08:37:28;77748.53;;;-141.45;65.41
31403;BME280;18039;52.188;21.024;2023-04-06T08:39:57;77774.91;;;-141.45;66.77
31403;BME280;18039;52.188;21.024;2023-04-06T08:42:25;77785.03;;;-141.45;68.76
31403;BME280;18039;52.188;21.024;2023-04-06T08:44:54;77797.19;;;-141.45;69.88
31403;BME280;18039;52.188;21.024;2023-04-06T08:47:22;77809.38;;;-141.45;69.48
31403;BME280;18039;52.188;21.024;2023-04-06T08:49:52;77803.28;;;-141.45;70.22
31403;BME280;18039;52.188;21.024;2023-04-06T08:52:20;77789.09;;;-141.45;70.92
31403;BME280;18039;52.188;21.024;2023-04-06T08:54:48;77785.03;;;-141.45;69.17
31403;BME280;18039;52.188;21.024;2023-04-06T08:57:16;77797.19;;;-141.45;69.52
31403;BME280;18039;52.188;21.024;2023-04-06T08:59:44;77791.13;;;-141.45;69.26
31403;BME280;18039;52.188;21.024;2023-04-06T09:02:16;77793.16;;;-141.45;69.41
31403;BME280;18039;52.188;21.024;2023-04-06T09:04:47;77785.03;;;-141.45;69.33
31403;BME280;18039;52.188;21.024;2023-04-06T09:07:15;77795.19;;;-141.45;70.06
31403;BME280;18039;52.188;21.024;2023-04-06T09:09:43;77797.19;;;-141.45;70.63
31403;BME280;18039;52.188;21.024;2023-04-06T09:12:27;77780.97;;;-141.45;70.54
31403;BME280;18039;52.188;21.024;2023-04-06T09:14:56;77785.03;;;-141.45;70.62
31403;BME280;18039;52.188;21.024;2023-04-06T09:17:29;77793.16;;;-141.45;71.21
31403;BME280;18039;52.188;21.024;2023-04-06T09:19:57;77785.03;;;-141.45;71.52
31403;BME280;18039;52.188;21.024;2023-04-06T09:22:25;77768.81;;;-141.45;72.39
31403;BME280;18039;52.188;21.024;2023-04-06T09:24:54;77762.72;;;-141.45;72.44
31403;BME280;18039;52.188;21.024;2023-04-06T09:27:35;77772.88;;;-141.45;73.50
31403;BME280;18039;52.188;21.024;2023-04-06T09:30:09;77772.88;;;-141.45;72.52
31403;BME280;18039;52.188;21.024;2023-04-06T09:32:51;77768.81;;;-141.45;73.23
31403;BME280;18039;52.188;21.024;2023-04-06T09:35:20;77768.81;;;-141.45;72.45
31403;BME280;18039;52.188;21.024;2023-04-06T09:37:49;77764.75;;;-141.45;72.36
31403;BME280;18039;52.188;21.024;2023-04-06T09:40:18;77780.97;;;-141.45;73.90
31403;BME280;18039;52.188;21.024;2023-04-06T09:42:46;77793.16;;;-141.45;75.23
31403;BME280;18039;52.188;21.024;2023-04-06T09:45:14;77783.00;;;-141.45;76.45
31403;BME280;18039;52.188;21.024;2023-04-06T09:47:45;77805.31;;;-141.45;77.50
31403;BME280;18039;52.188;21.024;2023-04-06T09:50:14;77793.16;;;-141.45;78.44
31403;BME280;18039;52.188;21.024;2023-04-06T09:52:47;77785.03;;;-141.45;77.81
31403;BME280;18039;52.188;21.024;2023-04-06T09:55:36;77797.19;;;-141.45;79.34
31403;BME280;18039;52.188;21.024;2023-04-06T09:58:09;77805.31;;;-141.45;78.63
31403;BME280;18039;52.188;21.024;2023-04-06T10:00:59;77805.31;;;-141.45;79.70
31403;BME280;18039;52.188;21.024;2023-04-06T10:03:50;77797.19;;;-141.45;80.89
31403;BME280;18039;52.188;21.024;2023-04-06T10:06:22;77797.19;;;-141.45;80.67
31403;BME280;18039;52.188;21.024;2023-04-06T10:08:50;77793.16;;;-141.45;81.83
31403;BME280;18039;52.188;21.024;2023-04-06T10:11:18;77780.97;;;-141.45;83.66
31403;BME280;18039;52.188;21.024;2023-04-06T10:13:47;77760.69;;;-141.45;82.61
31403;BME280;18039;52.188;21.024;2023-04-06T10:16:17;77760.69;;;-141.45;81.34
31403;BME280;18039;52.188;21.024;2023-04-06T10:18:46;77772.88;;;-141.45;81.09
31403;BME280;18039;52.188;21.024;2023-04-06T10:21:25;77780.97;;;-141.45;81.85
31403;BME280;18039;52.188;21.024;2023-04-06T10:23:59;77805.31;;;-141.45;84.18
31403;BME280;18039;52.188;21.024;2023-04-06T10:26:28;77813.44;;;-141.45;84.19
31403;BME280;18039;52.188;21.024;2023-04-06T10:29:01;77817.47;;;-141.45;84.81
31403;BME280;18039;52.188;21.024;2023-04-06T10:31:29;77821.53;;;-141.45;84.82
31403;BME280;18039;52.188;21.024;2023-04-06T10:33:58;77821.53;;;-141.45;85.42
31403;BME280;18039;52.188;21.024;2023-04-06T10:36:27;77811.41;;;-141.45;85.83
31403;BME280;18039;52.188;21.024;2023-04-06T10:38:57;77817.47;;;-141.45;86.55
31403;BME280;18039;52.188;21.024;2023-04-06T10:44:00;77821.53;;;-141.45;86.08
31403;BME280;18039;52.188;21.024;2023-04-06T10:46:29;77817.47;;;-141.45;86.43
31403;BME280;18039;52.188;21.024;2023-04-06T10:48:57;77817.47;;;-141.45;86.05
31403;BME280;18039;52.188;21.024;2023-04-06T10:51:27;77813.44;;;-141.45;86.11
31403;BME280;18039;52.188;21.024;2023-04-06T10:53:56;77813.44;;;-141.45;86.05
31403;BME280;18039;52.188;21.024;2023-04-06T10:56:24;77801.25;;;-141.45;86.18
31403;BME280;18039;52.188;21.024;2023-04-06T10:58:55;77793.16;;;-141.45;86.30
31403;BME280;18039;52.188;21.024;2023-04-06T11:01:24;77785.03;;;-141.45;85.99
31403;BME280;18039;52.188;21.024;2023-04-06T11:03:56;77785.03;;;-141.45;85.91
31403;BME280;18039;52.188;21.024;2023-04-06T11:06:29;77764.75;;;-141.45;85.57
31403;BME280;18039;52.188;21.024;2023-04-06T11:08:57;77768.81;;;-141.45;84.62
31403;BME280;18039;52.188;21.024;2023-04-06T11:11:26;77762.72;;;-141.45;84.90
31403;BME280;18039;52.188;21.024;2023-04-06T11:13:56;77756.66;;;-141.45;84.84
31403;BME280;18039;52.188;21.024;2023-04-06T11:16:26;77752.59;;;-141.45;84.70
31403;BME280;18039;52.188;21.024;2023-04-06T11:23:25;77752.59;;;-141.45;85.70
31403;BME280;18039;52.188;21.024;2023-04-06T11:25:53;77748.53;;;-141.45;83.96
31403;BME280;18039;52.188;21.024;2023-04-06T11:28:20;77752.59;;;-141.45;84.96
31403;BME280;18039;52.188;21.024;2023-04-06T11:30:48;77752.59;;;-141.45;85.34
31403;BME280;18039;52.188;21.024;2023-04-06T11:33:21;77748.53;;;-141.45;86.72
31403;BME280;18039;52.188;21.024;2023-04-06T11:35:52;77736.38;;;-141.45;86.80
31403;BME280;18039;52.188;21.024;2023-04-06T11:38:23;77730.28;;;-141.45;86.44
31403;BME280;18039;52.188;21.024;2023-04-06T11:40:54;77728.25;;;-141.45;85.50
31403;BME280;18039;52.188;21.024;2023-04-06T11:43:29;77720.16;;;-141.45;86.09
31403;BME280;18039;52.188;21.024;2023-04-06T11:46:02;77710.00;;;-141.45;86.17
31403;BME280;18039;52.188;21.024;2023-04-06T11:48:31;77712.03;;;-141.45;86.89
31403;BME280;18039;52.188;21.024;2023-04-06T11:50:59;77699.88;;;-141.45;85.95
31403;BME280;18039;52.188;21.024;2023-04-06T11:53:31;77703.94;;;-141.45;85.20
31403;BME280;18039;52.188;21.024;2023-04-06T11:56:00;77703.94;;;-141.45;86.56
31403;BME280;18039;52.188;21.024;2023-04-06T11:58:29;77693.78;;;-141.45;85.35
31403;BME280;18039;52.188;21.024;2023-04-06T12:01:03;77691.75;;;-141.45;85.47
31403;BME280;18039;52.188;21.024;2023-04-06T12:03:30;77679.59;;;-141.45;85.81
31403;BME280;18039;52.188;21.024;2023-04-06T12:05:58;77659.31;;;-141.45;85.56
31403;BME280;18039;52.188;21.024;2023-04-06T12:08:25;77659.31;;;-141.45;84.95
31403;BME280;18039;52.188;21.024;2023-04-06T12:10:53;77649.19;;;-141.45;84.19
31403;BME280;18039;52.188;21.024;2023-04-06T12:13:20;77628.91;;;-141.45;83.77
31403;BME280;18039;52.188;21.024;2023-04-06T12:15:49;77634.97;;;-141.45;83.94
31403;BME280;18039;52.188;21.024;2023-04-06T12:18:19;77618.75;;;-141.45;83.98
31403;BME280;18039;52.188;21.024;2023-04-06T12:20:47;77614.69;;;-141.45;83.22
31403;BME280;18039;52.188;21.024;2023-04-06T12:23:14;77610.66;;;-141.45;82.97
31403;BME280;18039;52.188;21.024;2023-04-06T12:25:42;77604.56;;;-141.45;83.15
31403;BME280;18039;52.188;21.024;2023-04-06T12:28:09;77610.66;;;-141.45;83.58
31403;BME280;18039;52.188;21.024;2023-04-06T12:30:37;77614.69;;;-141.45;83.21
31403;BME280;18039;52.188;21.024;2023-04-06T12:33:05;77620.78;;;-141.45;83.24
31403;BME280;18039;52.188;21.024;2023-04-06T12:35:36;77618.75;;;-141.45;83.19
31403;BME280;18039;52.188;21.024;2023-04-06T12:38:04;77618.75;;;-141.45;84.07
31403;BME280;18039;52.188;21.024;2023-04-06T12:40:36;77622.81;;;-141.45;83.22
31403;BME280;18039;52.188;21.024;2023-04-06T12:43:04;77614.69;;;-141.45;83.65
31403;BME280;18039;52.188;21.024;2023-04-06T12:45:32;77618.75;;;-141.45;84.13
31403;BME280;18039;52.188;21.024;2023-04-06T12:47:59;77614.69;;;-141.45;84.43
31403;BME280;18039;52.188;21.024;2023-04-06T12:50:27;77598.47;;;-141.45;84.35